Time;durP1;ratioP1;P1;durP2;ratioP2;P2;SDS_P1;SDS_P2;PMS_P1;PMS_P2;Temp;Humidity;BMP_temperature;BMP_pressure;BME280_temperature;BME280_humidity;BME280_pressure;Samples;Min_cycle;Max_cycle;Signal;HPM_P1;HPM_P2
2021/04/24 04:51:27;;;;;;;17.10;10.75;;;2.90;99.90;;;;;;5463715;23;20116;-70
2021/04/24 04:53:53;;;;;;;19.73;10.93;;;3.10;99.90;;;;;;4966780;28;20521;-69
2021/04/24 04:56:19;;;;;;;22.25;12.43;;;3.30;99.90;;;;;;4970992;28;20053;-70
2021/04/24 04:58:46;;;;;;;26.52;12.52;;;3.50;99.90;;;;;;4973216;28;20065;-70
2021/04/24 05:01:12;;;;;;;21.90;10.30;;;3.60;99.90;;;;;;4955855;28;20051;-70
2021/04/24 05:03:39;;;;;;;;;;;3.90;99.90;;;;;;4992012;28;20070;-70
2021/04/24 05:06:05;;;;;;;20.10;11.00;;;3.90;99.90;;;;;;4991829;23;19991;-69
2021/04/24 05:08:35;;;;;;;;;;;4.00;99.90;;;;;;4971771;28;20499;-69
2021/04/24 05:11:02;;;;;;;18.70;10.48;;;4.10;99.90;;;;;;4972503;28;19926;-69
2021/04/24 05:13:29;;;;;;;20.80;12.15;;;4.30;99.90;;;;;;4955700;28;20039;-70
2021/04/24 05:15:55;;;;;;;19.23;11.68;;;4.40;99.90;;;;;;4974411;28;20050;-69
2021/04/24 05:18:22;;;;;;;20.27;11.27;;;4.50;99.90;;;;;;4974558;28;20042;-69
2021/04/24 05:20:48;;;;;;;;;;;4.90;99.90;;;;;;4976849;28;20046;-69
2021/04/24 05:23:15;;;;;;;19.67;10.73;;;5.30;99.90;;;;;;4984014;28;19952;-71
2021/04/24 05:25:43;;;;;;;18.35;11.27;;;5.40;99.90;;;;;;4985185;28;20043;-69
2021/04/24 05:28:09;;;;;;;18.98;11.05;;;5.50;99.90;;;;;;4967289;28;20126;-70
2021/04/24 05:30:36;;;;;;;;;;;6.00;99.90;;;;;;4984060;28;20042;-70
2021/04/24 05:33:02;;;;;;;19.23;11.60;;;6.30;99.90;;;;;;4986816;28;19925;-69
2021/04/24 05:35:29;;;;;;;22.33;11.38;;;6.60;99.90;;;;;;4974148;28;20648;-70
2021/04/24 05:37:55;;;;;;;19.88;10.52;;;7.00;99.90;;;;;;4974168;28;20520;-70
2021/04/24 05:40:22;;;;;;;20.02;10.02;;;7.40;99.90;;;;;;4968910;28;20050;-70
2021/04/24 05:42:49;;;;;;;17.23;11.18;;;7.90;99.90;;;;;;4990162;28;20521;-69
2021/04/24 05:45:16;;;;;;;19.80;10.98;;;8.10;99.90;;;;;;4955164;29;20110;-70
2021/04/24 05:47:45;;;;;;;29.30;12.50;;;8.30;99.90;;;;;;4960789;28;20066;-69
2021/04/24 05:50:13;;;;;;;20.80;11.00;;;8.90;99.90;;;;;;4992494;28;20051;-69
2021/04/24 05:52:40;;;;;;;16.38;10.77;;;8.60;99.90;;;;;;4989414;28;20125;-69
2021/04/24 05:55:08;;;;;;;19.30;10.88;;;9.00;99.90;;;;;;4991963;28;20494;-70
2021/04/24 05:57:35;;;;;;;20.85;10.95;;;9.20;99.90;;;;;;4985855;28;20097;-70
2021/04/24 06:00:04;;;;;;;18.98;10.50;;;9.50;99.90;;;;;;4992001;28;20114;-68
2021/04/24 06:02:31;;;;;;;25.98;12.02;;;9.40;99.90;;;;;;4989743;28;20042;-69
2021/04/24 06:04:57;;;;;;;19.85;11.50;;;9.50;99.90;;;;;;4993078;28;20582;-69
2021/04/24 06:07:24;;;;;;;21.08;11.52;;;9.10;99.90;;;;;;4992550;28;20429;-70
2021/04/24 06:09:50;;;;;;;20.13;10.70;;;9.00;99.90;;;;;;4988722;28;20050;-70
2021/04/24 06:12:17;;;;;;;17.95;10.43;;;9.50;99.90;;;;;;4992934;28;20128;-70
2021/04/24 06:14:43;;;;;;;17.33;10.82;;;10.00;99.90;;;;;;4991116;28;20053;-70
2021/04/24 06:17:10;;;;;;;15.35;10.68;;;9.80;99.90;;;;;;4979969;28;20594;-70
2021/04/24 06:19:37;;;;;;;20.88;11.05;;;10.30;99.90;;;;;;4973559;28;20142;-69
2021/04/24 06:22:03;;;;;;;21.35;12.13;;;10.90;99.90;;;;;;4981628;28;20042;-69
2021/04/24 06:24:30;;;;;;;15.68;10.60;;;11.10;99.90;;;;;;4989105;28;20046;-70
2021/04/24 06:26:56;;;;;;;17.65;11.32;;;11.10;99.90;;;;;;4960551;28;20055;-70
2021/04/24 06:29:23;;;;;;;19.13;10.48;;;10.80;99.90;;;;;;4980188;28;20111;-70
2021/04/24 06:31:50;;;;;;;17.10;11.13;;;10.80;99.90;;;;;;4991970;28;20085;-70
2021/04/24 06:34:17;;;;;;;23.55;10.93;;;10.50;99.90;;;;;;4978457;28;20505;-70
2021/04/24 06:36:43;;;;;;;16.73;10.80;;;10.30;99.90;;;;;;4975724;28;20042;-68
2021/04/24 06:39:10;;;;;;;20.02;11.27;;;10.20;99.90;;;;;;4972631;28;20069;-69
2021/04/24 06:41:36;;;;;;;19.98;11.93;;;10.20;99.90;;;;;;4973298;28;20050;-70
2021/04/24 06:44:03;;;;;;;18.27;10.77;;;10.60;99.90;;;;;;4971949;28;20696;-69
2021/04/24 06:46:30;;;;;;;23.48;11.98;;;10.40;99.90;;;;;;4962081;28;20053;-71
2021/04/24 06:48:56;;;;;;;16.65;11.20;;;10.80;99.90;;;;;;4979025;28;20121;-69
2021/04/24 06:51:24;;;;;;;18.25;10.80;;;11.20;99.90;;;;;;4980180;28;20126;-69
2021/04/24 06:53:52;;;;;;;18.92;11.70;;;11.30;99.90;;;;;;4972660;28;20053;-69
2021/04/24 06:56:18;;;;;;;16.92;9.68;;;12.20;99.90;;;;;;4972165;28;20035;-68
2021/04/24 06:58:45;;;;;;;13.95;9.93;;;11.70;99.90;;;;;;4972388;28;20178;-70
2021/04/24 07:01:11;;;;;;;20.25;10.55;;;11.60;99.90;;;;;;4972460;28;20097;-70
2021/04/24 07:03:38;;;;;;;16.38;11.05;;;11.60;99.90;;;;;;4968169;28;20061;-71
2021/04/24 07:06:05;;;;;;;16.75;10.43;;;11.30;99.90;;;;;;4969643;28;20062;-70
2021/04/24 07:08:33;;;;;;;20.48;10.55;;;11.80;99.90;;;;;;4974305;28;20142;-69
2021/04/24 07:10:59;;;;;;;14.35;9.95;;;11.80;99.90;;;;;;4987228;28;20073;-69
2021/04/24 07:13:26;;;;;;;16.33;10.93;;;12.10;99.90;;;;;;4973273;28;20560;-69
2021/04/24 07:15:52;;;;;;;14.57;9.43;;;12.30;99.90;;;;;;4962215;28;20514;-71
2021/04/24 07:18:19;;;;;;;14.63;9.77;;;12.70;99.90;;;;;;4971391;28;20530;-69
2021/04/24 07:20:45;;;;;;;15.88;10.15;;;12.40;99.90;;;;;;4954533;28;20088;-69
2021/04/24 07:23:12;;;;;;;17.90;10.32;;;12.40;99.90;;;;;;4954762;28;20043;-68
2021/04/24 07:25:39;;;;;;;16.02;10.75;;;13.10;99.90;;;;;;4974464;28;20181;-71
2021/04/24 07:28:06;;;;;;;17.92;9.32;;;12.60;99.90;;;;;;4977655;28;20052;-69
2021/04/24 07:30:34;;;;;;;13.75;9.85;;;13.00;99.90;;;;;;4971435;28;20115;-69
2021/04/24 07:33:01;;;;;;;16.05;9.57;;;13.20;99.90;;;;;;4975622;28;20042;-70
2021/04/24 07:35:27;;;;;;;17.95;9.15;;;13.10;99.90;;;;;;4980651;28;20031;-70
2021/04/24 07:37:54;;;;;;;18.98;9.40;;;13.50;99.90;;;;;;4977547;28;20045;-70
2021/04/24 07:40:21;;;;;;;16.15;8.50;;;13.40;99.90;;;;;;4972226;28;20074;-70
2021/04/24 07:42:48;;;;;;;13.80;8.23;;;13.20;99.90;;;;;;4975752;28;20038;-69
2021/04/24 07:45:15;;;;;;;12.35;8.13;;;13.30;99.90;;;;;;4979217;28;20065;-69
2021/04/24 07:47:42;;;;;;;12.35;7.93;;;13.20;99.90;;;;;;4979263;28;20070;-69
2021/04/24 07:50:10;;;;;;;12.88;7.75;;;13.40;99.90;;;;;;4971178;28;20039;-69
2021/04/24 07:52:37;;;;;;;13.75;8.38;;;13.40;99.90;;;;;;4969465;28;20491;-69
2021/04/24 07:55:04;;;;;;;14.25;7.45;;;13.80;98.90;;;;;;4971213;28;20080;-71
2021/04/24 07:57:31;;;;;;;14.77;8.85;;;13.70;98.30;;;;;;4970959;28;20126;-69
2021/04/24 07:59:58;;;;;;;14.18;7.63;;;13.90;97.60;;;;;;4970914;28;20126;-71
2021/04/24 08:02:25;;;;;;;10.50;7.32;;;14.10;97.50;;;;;;4970535;28;20518;-70
2021/04/24 08:04:51;;;;;;;11.23;6.72;;;14.70;95.80;;;;;;4971084;28;20122;-70
2021/04/24 08:07:18;;;;;;;18.83;6.95;;;15.10;94.90;;;;;;4959671;28;20104;-71
2021/04/24 08:09:45;;;;;;;12.10;6.57;;;15.10;93.30;;;;;;4971444;28;20053;-68
2021/04/24 08:12:12;;;;;;;12.18;6.63;;;14.10;94.60;;;;;;4971298;28;20112;-67
2021/04/24 08:14:38;;;;;;;8.82;5.57;;;14.20;93.40;;;;;;4971175;28;20061;-69
2021/04/24 08:17:06;;;;;;;9.90;6.13;;;14.70;93.40;;;;;;4953623;28;20047;-69
2021/04/24 08:19:32;;;;;;;9.60;5.68;;;14.70;92.10;;;;;;4969451;28;20094;-70
2021/04/24 08:21:59;;;;;;;;;;;14.80;91.80;;;;;;4970966;28;20069;-68
2021/04/24 08:24:26;;;;;;;8.77;5.78;;;14.80;92.70;;;;;;4970873;28;20050;-68
2021/04/24 08:26:52;;;;;;;;;;;15.30;91.10;;;;;;4971713;28;20042;-69
2021/04/24 08:29:19;;;;;;;11.15;5.82;;;14.80;92.30;;;;;;4969720;28;20370;-69
2021/04/24 08:31:46;;;;;;;16.05;5.82;;;15.20;91.00;;;;;;4966185;28;20081;-69
2021/04/24 08:34:13;;;;;;;10.35;6.00;;;15.90;90.10;;;;;;4971200;28;20039;-70
2021/04/24 08:36:40;;;;;;;10.68;6.03;;;16.10;87.80;;;;;;4977403;28;20117;-71
2021/04/24 08:39:08;;;;;;;11.27;6.22;;;15.90;88.90;;;;;;4986298;28;20094;-69
2021/04/24 08:41:34;;;;;;;10.50;6.10;;;16.10;86.70;;;;;;4985478;28;20071;-69
2021/04/24 08:44:01;;;;;;;10.93;5.70;;;15.40;89.20;;;;;;4983788;28;20043;-71
2021/04/24 08:46:28;;;;;;;12.00;7.05;;;15.40;87.30;;;;;;4982541;28;20101;-70
2021/04/24 08:48:55;;;;;;;11.73;5.72;;;15.10;89.70;;;;;;4973875;28;20372;-69
2021/04/24 08:51:25;;;;;;;8.85;6.13;;;15.70;88.70;;;;;;4972667;28;20042;-70
2021/04/24 08:53:52;;;;;;;9.85;5.80;;;15.90;87.20;;;;;;4958579;28;20039;-70
2021/04/24 08:56:23;;;;;;;12.05;5.90;;;16.30;85.20;;;;;;4971470;28;20047;-70
2021/04/24 08:58:50;;;;;;;9.93;5.88;;;16.00;86.50;;;;;;4971478;28;20050;-70
2021/04/24 09:01:17;;;;;;;;;;;16.00;86.20;;;;;;4954393;28;20419;-69
2021/04/24 09:03:43;;;;;;;12.15;6.03;;;16.70;85.10;;;;;;4978958;28;19969;-70
2021/04/24 09:06:10;;;;;;;12.40;5.85;;;17.10;82.10;;;;;;4986862;28;20109;-69
2021/04/24 09:08:37;;;;;;;10.20;6.22;;;16.50;83.50;;;;;;4987186;28;20157;-71
2021/04/24 09:11:07;;;;;;;26.05;7.28;;;16.60;83.50;;;;;;4985528;28;20147;-71
2021/04/24 09:13:34;;;;;;;10.48;6.57;;;16.70;80.60;;;;;;4973890;28;20047;-68
2021/04/24 09:16:00;;;;;;;9.13;5.50;;;17.20;81.40;;;;;;4972993;28;20093;-69
2021/04/24 09:18:27;;;;;;;;;;;17.10;79.30;;;;;;4972225;28;20065;-69
2021/04/24 09:20:55;;;;;;;12.32;6.50;;;16.80;81.40;;;;;;4972023;28;20557;-69
2021/04/24 09:23:24;;;;;;;10.27;7.03;;;16.10;82.40;;;;;;4971974;28;20051;-70
2021/04/24 09:25:59;;;;;;;13.80;6.13;;;17.10;81.40;;;;;;4971650;28;20051;-70
2021/04/24 09:28:30;;;;;;;14.13;6.65;;;17.20;82.20;;;;;;4971382;28;20197;-70
2021/04/24 09:30:58;;;;;;;10.70;6.88;;;17.20;81.20;;;;;;4970784;28;20445;-70
2021/04/24 09:33:31;;;;;;;11.63;6.38;;;17.30;79.30;;;;;;4970831;28;20081;-70
2021/04/24 09:35:57;;;;;;;10.15;6.50;;;17.40;80.10;;;;;;4970863;28;20491;-70
2021/04/24 09:38:27;;;;;;;12.15;6.80;;;17.00;80.40;;;;;;4970911;28;20093;-69
2021/04/24 09:41:11;;;;;;;13.65;7.57;;;16.60;80.90;;;;;;4971089;28;20108;-69
2021/04/24 09:44:00;;;;;;;10.63;7.03;;;17.00;80.30;;;;;;4972906;28;20639;-70
2021/04/24 09:46:30;;;;;;;13.50;8.00;;;16.40;80.50;;;;;;4974342;28;20055;-68
2021/04/24 09:49:18;;;;;;;11.52;7.30;;;15.90;81.80;;;;;;4974595;28;20440;-69
2021/04/24 09:51:48;;;;;;;13.13;8.25;;;16.10;84.60;;;;;;4974208;28;20199;-69
2021/04/24 09:54:15;;;;;;;11.30;7.70;;;16.30;82.60;;;;;;4974396;28;20410;-69
2021/04/24 09:56:43;;;;;;;18.10;8.77;;;16.80;83.00;;;;;;4975326;28;20053;-71
2021/04/24 09:59:11;;;;;;;9.15;6.80;;;17.00;80.30;;;;;;4975202;28;20082;-70
2021/04/24 10:01:38;;;;;;;12.77;8.10;;;16.40;81.00;;;;;;4975913;28;20434;-70
2021/04/24 10:04:11;;;;;;;11.68;8.45;;;15.30;82.90;;;;;;4973981;28;20415;-68
2021/04/24 10:06:38;;;;;;;12.32;8.43;;;16.10;84.60;;;;;;4973026;28;20062;-71
2021/04/24 10:09:20;;;;;;;12.48;8.65;;;17.10;80.90;;;;;;4970178;28;20121;-69
2021/04/24 10:11:51;;;;;;;16.48;8.65;;;17.40;78.20;;;;;;4955357;28;20070;-70
2021/04/24 10:14:28;;;;;;;13.07;8.32;;;17.20;81.40;;;;;;4974469;28;20062;-70
2021/04/24 10:16:55;;;;;;;14.27;8.20;;;16.70;81.10;;;;;;4973706;28;20047;-70
2021/04/24 10:19:21;;;;;;;12.32;8.60;;;17.00;79.60;;;;;;4974816;28;20057;-70
2021/04/24 10:21:48;;;;;;;12.35;8.00;;;16.70;82.40;;;;;;4973989;28;20414;-70
2021/04/24 10:24:14;;;;;;;;;;;16.70;81.10;;;;;;4973665;28;20147;-69
2021/04/24 10:26:43;;;;;;;12.73;8.70;;;16.80;81.10;;;;;;4973231;28;19952;-71
2021/04/24 10:29:11;;;;;;;17.13;9.90;;;17.50;80.70;;;;;;4973734;28;20045;-70
2021/04/24 10:31:38;;;;;;;16.23;9.25;;;17.80;78.40;;;;;;4973284;28;20097;-70
2021/04/24 10:34:07;;;;;;;14.77;8.88;;;17.20;78.20;;;;;;4973198;28;20050;-70
2021/04/24 10:36:34;;;;;;;14.30;9.35;;;17.20;80.00;;;;;;4973230;28;20651;-70
2021/04/24 10:39:04;;;;;;;15.00;9.38;;;17.10;79.60;;;;;;4973167;28;20051;-69
2021/04/24 10:41:35;;;;;;;15.48;9.52;;;17.50;78.90;;;;;;4975609;28;20042;-71
2021/04/24 10:44:04;;;;;;;13.52;9.60;;;17.70;76.10;;;;;;4973960;28;20055;-70
2021/04/24 10:46:34;;;;;;;17.35;8.93;;;17.30;77.10;;;;;;4973283;28;20082;-70
2021/04/24 10:49:19;;;;;;;13.93;9.82;;;17.80;77.30;;;;;;4956022;28;20089;-71
2021/04/24 10:52:00;;;;;;;14.25;10.25;;;17.50;75.60;;;;;;4974178;28;20462;-69
2021/04/24 10:54:29;;;;;;;12.50;9.55;;;17.00;78.00;;;;;;4974147;28;20094;-72
2021/04/24 10:56:56;;;;;;;12.40;9.25;;;17.80;77.10;;;;;;4985335;28;20038;-70
2021/04/24 10:59:25;;;;;;;14.00;9.75;;;18.20;76.00;;;;;;4955571;29;20537;-70
2021/04/24 11:02:09;;;;;;;19.17;10.18;;;17.40;78.00;;;;;;4957289;28;20105;-70
2021/04/24 11:07:28;;;;;;;19.52;10.88;;;16.80;77.20;;;;;;4893772;29;20104;-67
2021/04/24 11:10:29;;;;;;;18.50;10.30;;;16.30;81.60;;;;;;4895959;29;20059;-67
2021/04/24 11:13:00;;;;;;;16.33;10.23;;;16.00;80.60;;;;;;4895909;29;20666;-67
2021/04/24 11:15:27;;;;;;;18.40;9.27;;;16.70;79.90;;;;;;4901656;29;20127;-67
2021/04/24 11:17:56;;;;;;;16.00;10.13;;;16.10;81.50;;;;;;4915039;29;20052;-67
2021/04/24 11:20:49;;;;;;;15.30;9.60;;;16.20;82.60;;;;;;4914580;29;20044;-67
2021/04/24 11:23:57;;;;;;;13.57;9.70;;;16.20;80.50;;;;;;4914180;29;20308;-67
2021/04/24 11:26:48;;;;;;;13.60;9.70;;;16.40;82.80;;;;;;4888146;29;20056;-67
2021/04/24 11:29:16;;;;;;;11.90;9.07;;;17.70;79.70;;;;;;4914553;29;20299;-67
2021/04/24 11:32:07;;;;;;;10.52;8.77;;;18.20;77.40;;;;;;4914501;29;20287;-67
2021/04/24 11:34:46;;;;;;;13.60;9.13;;;18.00;75.10;;;;;;4897231;29;20048;-67
2021/04/24 11:37:32;;;;;;;16.13;9.65;;;17.20;78.10;;;;;;4897590;29;20058;-67
2021/04/24 11:40:25;;;;;;;14.15;8.85;;;17.30;75.50;;;;;;4914284;29;20048;-67
2021/04/24 11:43:01;;;;;;;13.25;9.00;;;18.00;75.20;;;;;;4914210;29;20052;-67
2021/04/24 11:46:05;;;;;;;14.73;8.95;;;17.80;75.70;;;;;;4913887;29;20063;-67
2021/04/24 11:49:16;;;;;;;14.45;8.05;;;18.00;74.20;;;;;;4914555;29;20048;-67
2021/04/24 11:51:47;;;;;;;12.25;8.68;;;17.40;73.50;;;;;;4914067;29;20051;-67
2021/04/24 11:54:25;;;;;;;17.30;9.43;;;18.20;75.20;;;;;;4913886;29;20043;-67
2021/04/24 11:56:52;;;;;;;11.80;7.82;;;18.80;73.50;;;;;;4913723;29;20067;-67
2021/04/24 11:59:23;;;;;;;16.50;8.27;;;18.80;73.50;;;;;;4914172;29;20044;-67
2021/04/24 12:01:50;;;;;;;12.73;8.27;;;17.90;73.90;;;;;;4913788;29;20048;-67
2021/04/24 12:04:27;;;;;;;9.13;7.50;;;17.70;76.20;;;;;;4913987;29;20048;-67
2021/04/24 12:07:07;;;;;;;12.02;7.75;;;18.00;75.00;;;;;;4913233;29;20484;-67
2021/04/24 12:09:51;;;;;;;15.30;7.30;;;18.60;74.30;;;;;;4914066;29;20076;-67
2021/04/24 12:12:20;;;;;;;13.60;7.57;;;19.00;72.90;;;;;;4914283;29;20119;-67
2021/04/24 12:14:47;;;;;;;9.35;7.22;;;18.60;74.80;;;;;;4897006;29;20507;-67
2021/04/24 12:17:15;;;;;;;12.90;7.82;;;17.60;73.10;;;;;;4914041;29;20067;-67
2021/04/24 12:19:43;;;;;;;13.27;7.55;;;17.00;74.30;;;;;;4914103;29;20047;-67
2021/04/24 12:22:13;;;;;;;13.73;7.50;;;17.60;73.60;;;;;;4914165;29;20086;-67
2021/04/24 12:25:02;;;;;;;13.60;7.32;;;19.00;71.80;;;;;;4896633;29;20044;-67
2021/04/24 12:27:34;;;;;;;13.43;7.32;;;19.30;68.70;;;;;;4896710;29;20052;-67
2021/04/24 12:30:04;;;;;;;15.45;7.05;;;18.50;71.70;;;;;;4914098;29;20051;-67
2021/04/24 12:32:35;;;;;;;10.23;6.93;;;17.50;73.50;;;;;;4914023;29;20504;-67
2021/04/24 12:35:13;;;;;;;9.82;6.10;;;17.80;75.20;;;;;;4914232;29;20051;-67
2021/04/24 12:37:42;;;;;;;8.48;6.20;;;17.40;75.50;;;;;;4914043;29;20067;-67
2021/04/24 12:40:12;;;;;;;8.88;6.07;;;17.50;74.10;;;;;;4913901;29;20045;-67
2021/04/24 12:42:39;;;;;;;15.65;6.05;;;16.90;74.90;;;;;;4914291;29;20051;-67
2021/04/24 12:45:14;;;;;;;8.57;5.53;;;16.80;75.60;;;;;;4918233;29;20044;-67
2021/04/24 12:47:41;;;;;;;9.45;6.35;;;16.90;76.50;;;;;;4909317;29;20098;-67
2021/04/24 12:50:13;;;;;;;8.23;5.82;;;17.40;76.40;;;;;;4903932;29;20053;-66
2021/04/24 12:52:58;;;;;;;9.02;5.97;;;17.40;76.40;;;;;;4912617;29;20095;-67
2021/04/24 12:55:32;;;;;;;8.32;5.55;;;17.30;74.70;;;;;;4912685;29;20040;-67
2021/04/24 12:58:01;;;;;;;6.65;5.75;;;17.70;73.90;;;;;;4913264;29;20056;-67
2021/04/24 13:00:30;;;;;;;9.40;6.07;;;17.20;72.40;;;;;;4913761;29;20044;-67
2021/04/24 13:02:57;;;;;;;8.90;5.75;;;18.30;73.00;;;;;;4913060;29;20044;-67
2021/04/24 13:05:35;;;;;;;8.57;5.25;;;17.10;73.40;;;;;;4912741;29;20044;-67
2021/04/24 13:08:08;;;;;;;6.22;5.00;;;16.80;74.90;;;;;;4913154;29;20520;-67
2021/04/24 13:10:35;;;;;;;7.93;5.03;;;16.90;74.80;;;;;;4913295;29;20151;-67
2021/04/24 13:13:03;;;;;;;10.68;5.40;;;17.40;75.60;;;;;;4913370;29;20099;-67
2021/04/24 13:15:38;;;;;;;6.72;4.78;;;18.00;73.90;;;;;;4913127;29;20128;-67
2021/04/24 13:18:35;;;;;;;9.48;5.03;;;18.00;73.00;;;;;;4915878;29;20401;-67
2021/04/24 13:21:24;;;;;;;5.90;4.28;;;18.60;72.00;;;;;;4894864;29;20062;-67
2021/04/24 13:24:09;;;;;;;11.27;5.07;;;19.00;70.40;;;;;;4916806;29;20044;-67
2021/04/24 13:26:37;;;;;;;6.25;5.07;;;19.00;69.50;;;;;;4916538;29;20059;-67
2021/04/24 13:29:15;;;;;;;8.25;4.85;;;18.30;69.90;;;;;;4916690;29;20048;-67
2021/04/24 13:31:42;;;;;;;10.25;5.82;;;18.30;71.30;;;;;;4916421;29;20054;-67
2021/04/24 13:34:10;;;;;;;7.22;5.28;;;17.80;73.90;;;;;;4916169;29;20048;-67
2021/04/24 13:36:37;;;;;;;6.65;5.05;;;17.60;73.70;;;;;;4915550;29;20406;-67
2021/04/24 13:39:04;;;;;;;7.78;5.03;;;18.40;73.30;;;;;;4915962;29;20130;-67
2021/04/24 13:41:37;;;;;;;6.20;4.72;;;19.50;70.60;;;;;;4915965;29;20051;-67
2021/04/24 13:44:07;;;;;;;7.20;4.60;;;19.00;72.60;;;;;;4916372;29;20040;-67
2021/04/24 13:46:34;;;;;;;7.00;4.47;;;19.00;72.60;;;;;;4915601;29;20111;-67
2021/04/24 13:49:14;;;;;;;7.07;4.57;;;19.40;67.70;;;;;;4916180;29;20515;-67
2021/04/24 13:51:40;;;;;;;6.47;4.43;;;18.80;67.30;;;;;;4916016;29;20507;-67
2021/04/24 13:54:07;;;;;;;5.13;4.18;;;19.80;66.60;;;;;;4916011;29;20048;-67
2021/04/24 13:56:34;;;;;;;5.22;4.25;;;19.70;66.00;;;;;;4917374;29;20099;-67
2021/04/24 13:59:04;;;;;;;7.10;4.40;;;19.50;66.00;;;;;;4919991;29;20043;-67
2021/04/24 14:01:30;;;;;;;5.38;4.15;;;19.70;65.90;;;;;;4934511;29;20048;-68
2021/04/24 14:03:57;;;;;;;4.95;4.35;;;18.90;66.90;;;;;;4934867;29;20369;-67
2021/04/24 14:06:23;;;;;;;7.05;4.63;;;19.00;68.00;;;;;;4934127;29;20487;-67
2021/04/24 14:08:50;;;;;;;5.95;4.20;;;19.40;66.80;;;;;;4898118;29;20075;-67
2021/04/24 14:11:17;;;;;;;6.38;4.00;;;18.80;67.90;;;;;;4915692;29;20054;-68
2021/04/24 14:13:44;;;;;;;5.65;4.53;;;18.70;68.50;;;;;;4915959;29;20464;-67
2021/04/24 14:16:11;;;;;;;7.57;4.00;;;18.10;70.20;;;;;;4915605;29;20539;-67
2021/04/24 14:18:38;;;;;;;5.60;4.05;;;18.50;71.00;;;;;;4915673;29;20101;-67
2021/04/24 14:21:05;;;;;;;;;;;18.40;70.50;;;;;;4916223;29;20052;-68
2021/04/24 14:23:32;;;;;;;5.78;4.07;;;18.10;69.20;;;;;;4915674;29;19934;-68
2021/04/24 14:25:59;;;;;;;4.78;3.88;;;18.70;68.90;;;;;;4915531;29;20158;-68
2021/04/24 14:28:25;;;;;;;;;;;18.30;68.50;;;;;;4914667;29;20056;-68
2021/04/24 14:30:54;;;;;;;7.25;4.47;;;19.00;66.60;;;;;;4915312;29;19929;-68
2021/04/24 14:33:21;;;;;;;6.82;4.22;;;19.50;63.70;;;;;;4898251;29;20062;-68
2021/04/24 14:35:48;;;;;;;8.10;4.82;;;19.20;65.50;;;;;;4915703;29;20453;-66
2021/04/24 14:38:15;;;;;;;7.93;4.50;;;19.20;66.70;;;;;;4915251;29;20496;-66
2021/04/24 14:40:42;;;;;;;5.05;4.15;;;19.60;67.30;;;;;;4915965;29;20060;-67
2021/04/24 14:43:10;;;;;;;6.00;4.50;;;19.90;64.70;;;;;;4915202;29;20131;-67
2021/04/24 14:45:36;;;;;;;5.53;4.20;;;19.30;65.10;;;;;;4915466;29;20052;-67
2021/04/24 14:48:04;;;;;;;7.60;4.30;;;19.60;64.90;;;;;;4915085;29;20452;-67
2021/04/24 14:50:31;;;;;;;4.65;4.20;;;19.70;65.60;;;;;;4915219;29;20100;-67
2021/04/24 14:52:58;;;;;;;7.25;4.68;;;19.60;65.50;;;;;;4915196;29;20052;-67
2021/04/24 14:55:25;;;;;;;10.27;5.05;;;19.50;66.10;;;;;;4915204;29;20044;-67
2021/04/24 14:57:51;;;;;;;5.82;4.40;;;19.30;66.70;;;;;;4915033;29;20135;-67
2021/04/24 15:00:20;;;;;;;8.48;4.85;;;18.90;66.60;;;;;;4914810;29;20051;-67
2021/04/24 15:02:47;;;;;;;5.53;4.82;;;19.10;67.50;;;;;;4914472;29;20056;-66
2021/04/24 15:05:15;;;;;;;;;;;18.90;66.10;;;;;;4914731;29;20095;-66
2021/04/24 15:07:42;;;;;;;6.82;4.68;;;18.30;69.20;;;;;;4914409;29;20023;-67
2021/04/24 15:10:10;;;;;;;5.70;4.78;;;18.50;69.50;;;;;;4914998;29;20048;-67
2021/04/24 15:12:36;;;;;;;7.20;4.97;;;18.30;70.60;;;;;;4914883;29;20302;-67
2021/04/24 15:15:03;;;;;;;8.43;4.93;;;18.00;72.70;;;;;;4914472;29;20455;-67
2021/04/24 15:17:30;;;;;;;6.72;5.00;;;18.10;72.60;;;;;;4914286;29;20512;-67
2021/04/24 15:19:58;;;;;;;6.55;5.13;;;18.30;72.70;;;;;;4914594;29;20048;-67
2021/04/24 15:22:25;;;;;;;7.20;5.07;;;18.80;72.70;;;;;;4915010;29;20048;-66
2021/04/24 15:24:52;;;;;;;9.77;6.10;;;18.00;73.90;;;;;;4913922;29;20051;-67
2021/04/24 15:27:19;;;;;;;9.65;5.10;;;17.40;75.20;;;;;;4914231;29;20244;-67
2021/04/24 15:29:46;;;;;;;7.60;4.80;;;17.50;74.30;;;;;;4914416;29;20227;-66
2021/04/24 15:32:12;;;;;;;7.38;5.35;;;17.50;73.70;;;;;;4914645;29;20381;-66
2021/04/24 15:34:39;;;;;;;9.50;5.35;;;17.20;73.60;;;;;;4914701;29;20484;-67
2021/04/24 15:37:08;;;;;;;7.80;5.55;;;17.20;74.20;;;;;;4914278;29;20504;-67
2021/04/24 15:39:35;;;;;;;6.78;5.20;;;17.00;74.60;;;;;;4914135;29;20041;-67
2021/04/24 15:42:02;;;;;;;7.22;4.90;;;16.80;74.30;;;;;;4913334;29;20497;-66
2021/04/24 15:44:29;;;;;;;8.75;6.15;;;16.30;75.20;;;;;;4914152;29;20048;-67
2021/04/24 15:46:55;;;;;;;7.00;4.95;;;16.00;75.00;;;;;;4913797;29;20047;-66
2021/04/24 15:49:22;;;;;;;5.65;5.07;;;15.80;75.30;;;;;;4914028;29;20044;-66
2021/04/24 15:51:48;;;;;;;6.63;4.82;;;15.70;73.90;;;;;;4913734;29;20367;-66
2021/04/24 15:54:15;;;;;;;7.47;5.30;;;15.60;75.40;;;;;;4914008;29;20048;-67
2021/04/24 15:56:42;;;;;;;6.88;4.72;;;15.60;76.90;;;;;;4913646;29;20048;-67
2021/04/24 15:59:09;;;;;;;7.35;5.55;;;15.60;77.90;;;;;;4914064;29;20043;-67
2021/04/24 16:01:35;;;;;;;12.73;5.88;;;15.60;77.50;;;;;;4913872;29;20052;-67
2021/04/24 16:04:02;;;;;;;8.25;5.90;;;15.90;77.90;;;;;;4913960;29;20047;-67
2021/04/24 16:06:28;;;;;;;;;;;15.90;76.00;;;;;;4914067;29;20033;-66
2021/04/24 16:08:55;;;;;;;8.60;5.55;;;15.60;75.90;;;;;;4913856;29;20017;-67
2021/04/24 16:11:21;;;;;;;7.78;6.00;;;15.50;77.80;;;;;;4914176;29;20084;-65
2021/04/24 16:13:49;;;;;;;10.65;5.97;;;15.50;77.30;;;;;;4913772;29;20047;-65
2021/04/24 16:16:15;;;;;;;9.45;5.80;;;15.50;77.00;;;;;;4914208;29;20044;-66
2021/04/24 16:18:42;;;;;;;9.68;6.00;;;15.60;77.20;;;;;;4913375;29;20555;-67
2021/04/24 16:21:08;;;;;;;8.90;5.85;;;15.80;77.50;;;;;;4913491;29;20483;-68
2021/04/24 16:23:35;;;;;;;9.93;6.03;;;15.90;77.50;;;;;;4913659;29;20475;-67
2021/04/24 16:26:01;;;;;;;10.00;5.80;;;15.60;77.60;;;;;;4913354;29;20044;-66
2021/04/24 16:28:28;;;;;;;10.23;6.35;;;15.40;77.50;;;;;;4913399;29;20099;-66
2021/04/24 16:30:55;;;;;;;12.25;5.35;;;15.30;78.90;;;;;;4913468;29;20052;-66
2021/04/24 16:33:22;;;;;;;8.35;5.30;;;15.10;79.70;;;;;;4913869;29;20048;-67
2021/04/24 16:35:48;;;;;;;11.20;5.88;;;15.10;80.00;;;;;;4913644;29;20704;-66
2021/04/24 16:38:14;;;;;;;7.95;5.88;;;14.90;81.30;;;;;;4913196;29;20416;-67
2021/04/24 16:40:41;;;;;;;10.23;6.22;;;14.90;81.20;;;;;;4913501;29;20071;-66
2021/04/24 16:43:07;;;;;;;11.60;6.18;;;14.80;81.20;;;;;;4913685;29;20527;-66
2021/04/24 16:45:34;;;;;;;6.65;5.40;;;14.50;81.90;;;;;;4914149;29;20044;-67
2021/04/24 16:48:01;;;;;;;15.77;6.70;;;14.60;81.90;;;;;;4916091;29;20052;-66
2021/04/24 16:50:28;;;;;;;11.07;6.70;;;14.40;82.50;;;;;;4915987;29;20647;-67
2021/04/24 16:52:54;;;;;;;;;;;14.50;82.30;;;;;;4917284;29;20054;-67
2021/04/24 16:55:22;;;;;;;10.63;5.55;;;14.40;82.60;;;;;;4918253;29;19923;-66
2021/04/24 16:57:48;;;;;;;9.95;6.53;;;14.40;83.50;;;;;;4906021;29;20423;-66
2021/04/24 17:00:17;;;;;;;10.60;6.72;;;14.30;84.40;;;;;;4934437;29;20043;-67
2021/04/24 17:02:44;;;;;;;9.93;6.32;;;14.30;83.90;;;;;;4917073;29;20079;-66
2021/04/24 17:05:12;;;;;;;;;;;14.20;84.40;;;;;;4925609;23;20154;-69
2021/04/24 17:07:38;;;;;;;;;;;14.10;84.90;;;;;;4991524;28;19926;-71
2021/04/24 17:10:07;;;;;;;10.82;6.40;;;14.00;85.40;;;;;;4993456;28;20016;-71
2021/04/24 17:12:33;;;;;;;9.82;5.75;;;13.90;84.50;;;;;;4993889;28;20129;-71
2021/04/24 17:15:00;;;;;;;11.30;6.32;;;13.80;85.40;;;;;;4996785;28;20479;-71
2021/04/24 17:17:26;;;;;;;8.70;6.05;;;13.90;84.60;;;;;;4996398;28;20543;-71
2021/04/24 17:19:53;;;;;;;14.85;6.97;;;13.90;85.00;;;;;;4995028;28;20540;-70
2021/04/24 17:22:20;;;;;;;9.85;6.70;;;13.90;85.30;;;;;;4994970;28;20056;-70
2021/04/24 17:24:47;;;;;;;16.67;8.25;;;13.90;84.60;;;;;;4993202;28;20057;-71
2021/04/24 17:27:16;;;;;;;8.50;5.97;;;13.70;84.60;;;;;;4993777;28;20177;-71
2021/04/24 17:29:44;;;;;;;13.35;6.97;;;13.70;85.30;;;;;;4994063;28;20133;-69
2021/04/24 17:32:12;;;;;;;11.77;8.68;;;13.60;85.70;;;;;;4992099;28;20161;-69
2021/04/24 17:34:39;;;;;;;9.50;6.38;;;13.70;85.60;;;;;;4993237;28;20035;-69
2021/04/24 17:37:05;;;;;;;11.88;6.50;;;13.60;85.10;;;;;;4993789;28;20054;-69
2021/04/24 17:39:32;;;;;;;13.38;6.90;;;13.70;86.10;;;;;;4993711;28;20060;-71
2021/04/24 17:42:00;;;;;;;8.48;5.43;;;13.70;86.10;;;;;;4992195;28;20065;-72
2021/04/24 17:44:27;;;;;;;9.93;5.38;;;13.50;86.70;;;;;;4993162;28;20149;-70
2021/04/24 17:46:53;;;;;;;;;;;13.60;85.80;;;;;;4993715;28;20481;-71